Time;durP1;ratioP1;P1;durP2;ratioP2;P2;SDS_P1;SDS_P2;PMS_P1;PMS_P2;Temp;Humidity;BMP_temperature;BMP_pressure;BME280_temperature;BME280_humidity;BME280_pressure;Samples;Min_cycle;Max_cycle;Signal;HPM_P1;HPM_P2
2021/09/08 00:02:22;;;;;;;19.25;11.93;;;17.10;76.00;;;;;;5073556;28;20488;-48
2021/09/08 00:04:48;;;;;;;19.00;12.15;;;17.10;76.00;;;;;;5073544;28;20504;-47
2021/09/08 00:07:13;;;;;;;19.38;11.90;;;17.00;76.20;;;;;;5073080;28;20028;-47
2021/09/08 00:09:39;;;;;;;21.15;11.43;;;17.00;76.30;;;;;;5073289;28;20099;-50
2021/09/08 00:12:05;;;;;;;16.58;11.75;;;16.90;76.40;;;;;;5073365;28;20419;-49
2021/09/08 00:14:31;;;;;;;22.33;12.65;;;17.00;76.60;;;;;;5073351;28;20032;-51
2021/09/08 00:16:57;;;;;;;19.00;11.70;;;16.90;76.80;;;;;;5073860;28;20073;-48
2021/09/08 00:19:23;;;;;;;19.10;12.20;;;16.90;76.70;;;;;;5073720;28;20031;-48
2021/09/08 00:21:48;;;;;;;19.42;11.98;;;17.10;76.50;;;;;;5073496;28;20037;-47
2021/09/08 00:24:14;;;;;;;23.38;12.55;;;17.20;76.00;;;;;;5073622;28;20377;-48
2021/09/08 00:26:40;;;;;;;19.90;12.13;;;17.20;76.00;;;;;;5073353;28;20025;-47
2021/09/08 00:29:06;;;;;;;18.67;12.60;;;17.20;75.90;;;;;;5073364;28;20582;-50
2021/09/08 00:31:31;;;;;;;19.50;12.15;;;17.00;76.20;;;;;;5073040;28;20118;-47
2021/09/08 00:33:57;;;;;;;19.70;10.75;;;17.20;76.00;;;;;;5073217;28;20064;-47
2021/09/08 00:36:22;;;;;;;24.30;12.43;;;17.00;76.20;;;;;;5073196;28;20028;-46
2021/09/08 00:38:48;;;;;;;16.48;11.63;;;16.90;76.70;;;;;;5071666;28;20512;-49
2021/09/08 00:41:14;;;;;;;24.40;11.95;;;17.10;76.40;;;;;;5072776;28;20039;-48
2021/09/08 00:43:39;;;;;;;27.80;12.60;;;17.00;76.30;;;;;;5073123;28;20027;-47
2021/09/08 00:46:06;;;;;;;20.33;13.52;;;17.00;76.70;;;;;;5073076;28;20036;-47
2021/09/08 00:48:31;;;;;;;20.40;12.82;;;16.80;77.10;;;;;;5072810;28;20040;-47
2021/09/08 00:50:58;;;;;;;17.17;12.25;;;16.80;77.20;;;;;;5072885;28;20035;-47
2021/09/08 00:53:24;;;;;;;19.77;12.55;;;16.80;77.50;;;;;;5072744;28;20028;-48
2021/09/08 00:55:50;;;;;;;29.80;12.98;;;16.70;77.80;;;;;;5072574;28;20032;-47
2021/09/08 00:58:15;;;;;;;18.67;12.55;;;16.70;77.80;;;;;;5072939;28;20032;-47
2021/09/08 01:00:42;;;;;;;25.30;14.50;;;16.60;78.20;;;;;;5072548;28;20036;-48
2021/09/08 01:03:08;;;;;;;21.45;13.32;;;16.60;78.40;;;;;;5072420;28;20021;-47
2021/09/08 01:05:33;;;;;;;17.65;11.80;;;16.50;78.60;;;;;;5072401;28;20028;-47
2021/09/08 01:08:00;;;;;;;22.10;13.93;;;16.60;78.50;;;;;;5072542;28;20089;-48
2021/09/08 01:10:30;;;;;;;20.00;12.63;;;16.50;78.80;;;;;;5072195;28;20029;-48
2021/09/08 01:12:56;;;;;;;16.95;11.65;;;16.40;79.20;;;;;;5072810;28;20131;-47
2021/09/08 01:15:22;;;;;;;19.77;12.30;;;16.40;79.20;;;;;;5072638;28;20111;-48
2021/09/08 01:17:48;;;;;;;19.30;12.40;;;16.40;79.40;;;;;;5072167;28;20067;-50
2021/09/08 01:20:15;;;;;;;19.85;12.90;;;16.30;79.60;;;;;;5073533;28;20507;-47
2021/09/08 01:22:52;;;;;;;17.95;12.57;;;16.40;79.50;;;;;;5074412;28;20025;-48
2021/09/08 01:25:23;;;;;;;14.60;11.32;;;16.30;79.60;;;;;;5076076;28;20017;-48
2021/09/08 01:27:51;;;;;;;18.98;12.52;;;16.30;79.70;;;;;;5075717;28;20025;-46
2021/09/08 01:30:19;;;;;;;19.02;11.63;;;16.30;80.00;;;;;;5075814;28;20021;-47
2021/09/08 01:32:47;;;;;;;21.80;13.00;;;16.30;80.00;;;;;;5075862;28;20020;-48
2021/09/08 01:35:14;;;;;;;22.15;13.50;;;16.30;80.10;;;;;;5075888;28;20063;-47
2021/09/08 01:37:39;;;;;;;19.27;12.27;;;16.30;80.20;;;;;;5075982;28;20041;-48
2021/09/08 01:40:06;;;;;;;21.40;13.27;;;16.20;80.20;;;;;;5075948;28;20041;-46
2021/09/08 01:42:31;;;;;;;21.55;13.55;;;16.10;80.60;;;;;;5075722;28;20036;-46
2021/09/08 01:44:57;;;;;;;15.77;11.27;;;16.10;80.90;;;;;;5076097;28;20413;-46
2021/09/08 01:47:23;;;;;;;19.90;12.77;;;16.00;81.20;;;;;;5075753;28;20021;-46
2021/09/08 01:49:48;;;;;;;19.77;12.35;;;16.00;81.10;;;;;;5075609;28;20021;-50
2021/09/08 01:52:14;;;;;;;22.83;12.63;;;16.00;81.00;;;;;;5075694;28;20361;-49
2021/09/08 01:54:40;;;;;;;19.48;12.98;;;16.00;81.20;;;;;;5075562;28;20024;-47
2021/09/08 01:57:05;;;;;;;20.63;11.98;;;16.00;80.70;;;;;;5075206;28;20035;-48
2021/09/08 01:59:31;;;;;;;20.80;13.23;;;16.00;80.90;;;;;;5075616;28;20029;-48
2021/09/08 02:01:57;;;;;;;20.48;12.35;;;16.00;80.90;;;;;;5075873;28;20028;-46
2021/09/08 02:04:24;;;;;;;22.17;12.57;;;15.90;80.80;;;;;;5075461;28;20029;-48
2021/09/08 02:06:51;;;;;;;23.38;12.82;;;16.00;80.90;;;;;;5075510;28;20024;-48
2021/09/08 02:09:17;;;;;;;26.52;13.80;;;15.90;81.00;;;;;;5075513;28;20020;-48
2021/09/08 02:11:44;;;;;;;27.13;13.27;;;15.90;81.10;;;;;;5075403;28;20039;-47
2021/09/08 02:14:10;;;;;;;18.40;12.88;;;15.90;81.20;;;;;;5075369;28;20024;-48
2021/09/08 02:16:37;;;;;;;24.85;14.60;;;15.80;81.30;;;;;;5075334;28;20421;-47
2021/09/08 02:19:03;;;;;;;19.45;13.93;;;15.80;81.30;;;;;;5075453;28;20029;-46
2021/09/08 02:21:29;;;;;;;18.85;13.05;;;15.80;81.70;;;;;;5075002;28;20162;-46
2021/09/08 02:23:55;;;;;;;25.00;14.60;;;15.80;81.60;;;;;;5075231;28;20021;-48
2021/09/08 02:26:21;;;;;;;22.95;13.23;;;15.80;81.60;;;;;;5075351;28;20111;-47
2021/09/08 02:28:47;;;;;;;23.90;13.77;;;15.80;81.80;;;;;;5075553;28;20091;-46
2021/09/08 02:31:13;;;;;;;22.80;15.57;;;15.80;81.70;;;;;;5075041;28;20028;-47
2021/09/08 02:33:39;;;;;;;23.58;14.85;;;15.80;81.70;;;;;;5075214;28;20078;-48
2021/09/08 02:36:05;;;;;;;21.05;12.90;;;15.80;81.80;;;;;;5075477;28;20457;-50
2021/09/08 02:38:31;;;;;;;23.75;13.38;;;15.70;82.00;;;;;;5075174;28;20033;-47
2021/09/08 02:41:00;;;;;;;21.27;13.55;;;15.70;82.30;;;;;;5074698;28;20103;-46
2021/09/08 02:43:26;;;;;;;21.52;14.18;;;15.60;82.30;;;;;;5075012;28;20476;-47
2021/09/08 02:45:52;;;;;;;26.42;15.13;;;15.60;82.30;;;;;;5074923;28;20016;-47
2021/09/08 02:48:18;;;;;;;27.83;15.38;;;15.60;82.50;;;;;;5073710;28;20325;-47
2021/09/08 02:50:43;;;;;;;23.20;15.40;;;15.50;82.60;;;;;;5074616;28;20032;-52
2021/09/08 02:53:09;;;;;;;23.80;14.02;;;15.50;82.90;;;;;;5074497;28;20024;-46
2021/09/08 02:55:35;;;;;;;22.10;15.07;;;15.50;82.60;;;;;;5073252;28;20389;-50
2021/09/08 02:58:01;;;;;;;20.17;13.75;;;15.40;82.80;;;;;;5074412;28;20021;-48
2021/09/08 03:00:27;;;;;;;21.95;14.18;;;15.50;82.50;;;;;;5074677;28;20040;-47
2021/09/08 03:02:52;;;;;;;22.55;15.60;;;15.50;82.70;;;;;;5074289;28;20479;-47
2021/09/08 03:05:18;;;;;;;23.67;14.90;;;15.40;83.00;;;;;;5074584;28;20107;-47
2021/09/08 03:07:44;;;;;;;20.48;14.15;;;15.40;82.90;;;;;;5074686;28;20475;-48
2021/09/08 03:10:10;;;;;;;25.90;15.57;;;15.40;82.70;;;;;;5074131;28;20020;-47
2021/09/08 03:12:36;;;;;;;24.95;14.73;;;15.40;82.60;;;;;;5074123;28;20120;-47
2021/09/08 03:15:01;;;;;;;23.08;15.32;;;15.40;82.70;;;;;;5074307;28;20056;-46
2021/09/08 03:17:27;;;;;;;21.17;13.23;;;15.40;82.70;;;;;;5072830;28;20036;-48
2021/09/08 03:19:53;;;;;;;20.33;14.65;;;15.40;82.50;;;;;;5073858;28;20051;-47
2021/09/08 03:22:19;;;;;;;22.10;15.13;;;15.50;82.10;;;;;;5073881;28;20051;-49
2021/09/08 03:24:45;;;;;;;21.42;15.10;;;15.40;82.30;;;;;;5073719;28;20024;-47
2021/09/08 03:27:10;;;;;;;21.02;14.73;;;15.40;82.20;;;;;;5073976;28;20070;-48
2021/09/08 03:29:36;;;;;;;27.80;15.52;;;15.40;82.30;;;;;;5073768;28;20358;-48
2021/09/08 03:32:03;;;;;;;24.15;14.93;;;15.40;82.10;;;;;;5073728;28;20093;-51
2021/09/08 03:34:28;;;;;;;26.83;15.38;;;15.40;82.40;;;;;;5073653;28;20025;-47
2021/09/08 03:36:54;;;;;;;27.13;14.63;;;15.30;82.30;;;;;;5073709;28;20040;-49
2021/09/08 03:39:20;;;;;;;25.13;14.65;;;15.40;82.30;;;;;;5073666;28;20025;-48
2021/09/08 03:41:45;;;;;;;24.00;15.25;;;15.30;82.70;;;;;;5073128;28;20052;-47
2021/09/08 03:44:11;;;;;;;24.70;15.23;;;15.30;82.70;;;;;;5073288;28;20027;-47
2021/09/08 03:46:36;;;;;;;25.27;15.52;;;15.20;83.00;;;;;;5073485;28;20051;-48
2021/09/08 03:49:02;;;;;;;24.17;15.02;;;15.20;82.80;;;;;;5073370;28;20021;-47
2021/09/08 03:51:28;;;;;;;26.58;14.48;;;15.20;83.10;;;;;;5073400;28;20403;-48
2021/09/08 03:53:58;;;;;;;27.50;15.57;;;15.20;83.20;;;;;;5074054;28;20100;-48
2021/09/08 03:56:23;;;;;;;27.65;17.40;;;15.10;83.20;;;;;;5074386;28;20429;-49
2021/09/08 03:58:49;;;;;;;25.67;15.57;;;15.10;83.40;;;;;;5073574;28;20123;-51
2021/09/08 04:01:15;;;;;;;23.65;16.38;;;15.00;83.70;;;;;;5073267;28;20120;-45
2021/09/08 04:03:40;;;;;;;25.70;16.10;;;15.10;83.60;;;;;;5073185;28;20036;-48
2021/09/08 04:06:06;;;;;;;25.00;16.98;;;15.10;83.70;;;;;;5072992;28;20108;-45
2021/09/08 04:08:31;;;;;;;22.08;15.43;;;15.10;83.50;;;;;;5072818;28;20028;-51
2021/09/08 04:10:57;;;;;;;29.27;16.40;;;15.00;83.80;;;;;;5073171;28;20059;-47
2021/09/08 04:13:23;;;;;;;24.67;15.30;;;15.10;84.00;;;;;;5072895;28;20033;-48
2021/09/08 04:15:48;;;;;;;28.40;16.40;;;15.20;83.10;;;;;;5072560;28;20032;-46
2021/09/08 04:18:14;;;;;;;21.60;15.43;;;15.10;83.40;;;;;;5072773;28;20024;-46
2021/09/08 04:20:40;;;;;;;23.00;15.38;;;15.00;83.60;;;;;;5072488;28;20057;-46
2021/09/08 04:23:05;;;;;;;25.05;16.30;;;14.90;83.90;;;;;;5072787;28;20531;-46
2021/09/08 04:25:31;;;;;;;26.55;16.60;;;15.00;83.80;;;;;;5072919;28;20055;-46
2021/09/08 04:27:56;;;;;;;25.23;17.27;;;14.90;83.90;;;;;;5072477;28;20161;-47
2021/09/08 04:30:22;;;;;;;22.92;15.63;;;14.90;84.10;;;;;;5072549;28;20103;-47
2021/09/08 04:32:47;;;;;;;23.33;16.13;;;14.90;84.10;;;;;;5071446;28;20082;-46
2021/09/08 04:35:13;;;;;;;23.58;16.45;;;14.80;84.10;;;;;;5072519;28;20048;-47
2021/09/08 04:37:39;;;;;;;27.17;17.38;;;14.80;84.20;;;;;;5072679;28;20468;-48
2021/09/08 04:40:05;;;;;;;22.08;16.48;;;14.80;84.20;;;;;;5072916;28;20040;-48
2021/09/08 04:42:31;;;;;;;25.55;17.23;;;14.80;84.20;;;;;;5072327;28;20056;-46
2021/09/08 04:44:57;;;;;;;22.65;15.65;;;14.80;84.00;;;;;;5072509;28;20021;-47
2021/09/08 04:47:22;;;;;;;27.00;16.27;;;14.80;84.40;;;;;;5072404;28;20028;-47
2021/09/08 04:49:48;;;;;;;22.63;15.90;;;14.80;84.50;;;;;;5072201;28;20503;-47
2021/09/08 04:52:15;;;;;;;22.58;15.65;;;14.80;84.60;;;;;;5072340;28;20027;-46
2021/09/08 04:54:41;;;;;;;29.50;16.80;;;14.70;84.70;;;;;;5075222;28;20025;-47
2021/09/08 04:57:06;;;;;;;25.08;15.75;;;14.70;84.70;;;;;;5076502;28;20051;-47
2021/09/08 04:59:32;;;;;;;24.50;17.13;;;14.80;84.80;;;;;;5076487;28;20024;-48
2021/09/08 05:01:58;;;;;;;27.05;15.48;;;14.80;84.30;;;;;;5076272;28;20491;-47
2021/09/08 05:04:23;;;;;;;27.63;16.52;;;14.80;84.40;;;;;;5076637;28;20021;-50
2021/09/08 05:06:50;;;;;;;28.77;17.27;;;14.80;84.30;;;;;;5076662;28;20058;-47
2021/09/08 05:09:16;;;;;;;27.38;17.20;;;14.80;84.50;;;;;;5076489;28;20078;-49
2021/09/08 05:11:41;;;;;;;33.85;17.00;;;14.80;84.20;;;;;;5076364;28;20056;-47
2021/09/08 05:14:07;;;;;;;25.95;16.60;;;14.80;84.10;;;;;;5076174;28;20487;-46
2021/09/08 05:16:33;;;;;;;30.63;16.25;;;14.80;84.30;;;;;;5076058;28;20036;-46
2021/09/08 05:18:58;;;;;;;26.40;16.65;;;14.80;84.00;;;;;;5075858;28;20032;-48
2021/09/08 05:21:24;;;;;;;25.13;16.17;;;14.80;84.00;;;;;;5075602;28;20048;-47
2021/09/08 05:23:50;;;;;;;26.45;16.38;;;14.90;83.80;;;;;;5075905;28;20020;-49
2021/09/08 05:26:16;;;;;;;25.13;16.83;;;14.80;83.80;;;;;;5075934;28;20075;-47
2021/09/08 05:28:41;;;;;;;27.88;19.95;;;14.90;83.70;;;;;;5076065;28;20021;-46
2021/09/08 05:31:07;;;;;;;24.98;16.35;;;14.80;83.70;;;;;;5076203;28;20095;-50
2021/09/08 05:33:33;;;;;;;28.52;16.90;;;14.90;83.60;;;;;;5075745;28;20021;-49
2021/09/08 05:35:59;;;;;;;27.70;14.82;;;14.80;84.00;;;;;;5075689;28;20053;-47
2021/09/08 05:38:25;;;;;;;25.13;17.15;;;14.90;83.70;;;;;;5075595;28;20109;-48
2021/09/08 05:40:51;;;;;;;24.40;15.65;;;14.90;83.80;;;;;;5075425;28;20055;-46
2021/09/08 05:43:16;;;;;;;23.25;16.52;;;15.00;83.70;;;;;;5075313;28;20016;-46
2021/09/08 05:45:43;;;;;;;26.48;17.23;;;15.10;83.20;;;;;;5074497;28;20024;-48
2021/09/08 05:48:09;;;;;;;30.90;17.52;;;15.10;83.00;;;;;;5075581;28;20024;-48
2021/09/08 05:50:35;;;;;;;26.10;15.52;;;15.10;82.90;;;;;;5075262;28;20040;-46
2021/09/08 05:53:03;;;;;;;27.63;16.05;;;15.10;83.10;;;;;;5075349;28;20100;-48
2021/09/08 05:55:29;;;;;;;26.42;16.50;;;15.10;83.20;;;;;;5075344;28;20034;-47
2021/09/08 05:57:55;;;;;;;24.75;15.90;;;15.20;83.00;;;;;;5075235;28;20422;-46
2021/09/08 06:00:20;;;;;;;23.98;16.38;;;15.20;82.80;;;;;;5075098;28;20035;-48
2021/09/08 06:02:46;;;;;;;25.92;16.95;;;15.30;82.50;;;;;;5074781;28;20094;-46
2021/09/08 06:05:12;;;;;;;25.85;16.45;;;15.30;82.20;;;;;;5073685;28;20362;-47
2021/09/08 06:07:38;;;;;;;30.33;17.95;;;15.30;82.20;;;;;;5074995;28;20025;-47
2021/09/08 06:10:04;;;;;;;28.02;16.95;;;15.40;82.10;;;;;;5075300;28;20043;-46
2021/09/08 06:12:29;;;;;;;22.75;15.48;;;15.40;82.10;;;;;;5077623;28;20050;-45
2021/09/08 06:14:55;;;;;;;22.05;15.60;;;15.50;82.10;;;;;;5074920;28;20537;-47
2021/09/08 06:17:21;;;;;;;25.55;15.85;;;15.60;81.80;;;;;;5074686;28;20162;-47
2021/09/08 06:19:46;;;;;;;23.25;15.07;;;15.60;81.60;;;;;;5074550;28;20036;-46
2021/09/08 06:22:12;;;;;;;27.95;17.15;;;15.70;81.60;;;;;;5075645;28;20021;-47
2021/09/08 06:24:38;;;;;;;21.58;15.32;;;15.80;80.90;;;;;;5074835;28;20024;-45
2021/09/08 06:27:03;;;;;;;23.85;16.00;;;15.90;80.80;;;;;;5074518;28;20048;-46
2021/09/08 06:29:30;;;;;;;24.25;16.45;;;16.00;80.70;;;;;;5074754;28;20097;-46
2021/09/08 06:31:56;;;;;;;24.45;15.35;;;16.00;80.30;;;;;;5074801;28;20043;-46
2021/09/08 06:34:21;;;;;;;21.67;14.98;;;16.10;79.90;;;;;;5074376;28;20033;-47
2021/09/08 06:36:49;;;;;;;30.77;16.83;;;16.20;79.80;;;;;;5074541;28;20362;-47
2021/09/08 06:39:15;;;;;;;35.58;16.13;;;16.20;79.70;;;;;;5074924;28;20362;-47
2021/09/08 06:41:41;;;;;;;27.25;14.98;;;16.30;79.40;;;;;;5074545;28;20062;-48
2021/09/08 06:44:07;;;;;;;29.58;16.40;;;16.50;78.60;;;;;;5074744;28;20464;-48
2021/09/08 06:46:33;;;;;;;24.17;14.43;;;16.60;78.50;;;;;;5074223;28;20066;-48
2021/09/08 06:48:58;;;;;;;27.35;15.50;;;16.60;78.40;;;;;;5074101;28;20017;-49
2021/09/08 06:51:24;;;;;;;26.50;16.13;;;16.80;77.70;;;;;;5074095;28;20112;-46
2021/09/08 06:53:50;;;;;;;28.08;14.57;;;16.80;77.40;;;;;;5073770;28;20029;-49
2021/09/08 06:56:15;;;;;;;21.83;15.20;;;17.00;76.90;;;;;;5073700;28;20028;-48
2021/09/08 06:58:41;;;;;;;22.63;14.27;;;17.20;76.60;;;;;;5074055;28;20471;-47
2021/09/08 07:01:06;;;;;;;24.98;13.93;;;17.30;76.20;;;;;;5073963;28;20031;-47
2021/09/08 07:03:33;;;;;;;25.35;16.33;;;17.40;75.80;;;;;;5073964;28;20060;-46
2021/09/08 07:05:58;;;;;;;23.40;15.50;;;17.50;75.20;;;;;;5072344;28;20025;-47
2021/09/08 07:08:24;;;;;;;22.73;14.63;;;17.60;74.80;;;;;;5074037;28;20029;-50
2021/09/08 07:10:50;;;;;;;26.85;14.70;;;17.70;74.80;;;;;;5073832;28;20012;-48
2021/09/08 07:13:15;;;;;;;23.92;14.88;;;17.80;73.90;;;;;;5074128;28;20047;-47
2021/09/08 07:15:41;;;;;;;27.13;15.95;;;18.10;73.50;;;;;;5074374;28;20552;-48
2021/09/08 07:18:06;;;;;;;21.45;15.18;;;18.30;72.60;;;;;;5073871;28;20480;-45
2021/09/08 07:20:32;;;;;;;22.67;15.07;;;18.30;72.70;;;;;;5073250;28;20068;-45
2021/09/08 07:22:58;;;;;;;23.42;14.88;;;18.40;72.00;;;;;;5072970;28;20020;-47
2021/09/08 07:25:24;;;;;;;23.08;15.02;;;18.80;71.70;;;;;;5073497;28;20119;-49
2021/09/08 07:27:49;;;;;;;22.45;14.15;;;18.90;71.10;;;;;;5073544;28;20027;-49
2021/09/08 07:30:15;;;;;;;23.05;14.70;;;19.20;70.10;;;;;;5072976;28;20024;-50
2021/09/08 07:32:40;;;;;;;18.20;13.20;;;19.30;69.80;;;;;;5073315;28;20047;-50
2021/09/08 07:35:07;;;;;;;22.00;13.57;;;19.30;69.50;;;;;;5073418;28;20039;-47
2021/09/08 07:37:33;;;;;;;19.50;13.40;;;19.20;69.70;;;;;;5073564;28;20143;-50
2021/09/08 07:39:59;;;;;;;18.52;13.63;;;19.30;69.40;;;;;;5073451;28;20099;-49
2021/09/08 07:42:24;;;;;;;23.83;12.90;;;19.40;69.20;;;;;;5072358;28;20029;-46
2021/09/08 07:44:50;;;;;;;18.75;12.48;;;19.50;68.70;;;;;;5073367;28;20377;-48
2021/09/08 07:47:16;;;;;;;27.67;14.25;;;19.60;68.80;;;;;;5071849;28;20124;-47
2021/09/08 07:49:42;;;;;;;22.83;13.57;;;19.80;67.50;;;;;;5073812;28;20078;-49
2021/09/08 07:52:07;;;;;;;30.80;14.10;;;19.80;68.10;;;;;;5073282;28;20087;-51
2021/09/08 07:54:33;;;;;;;21.85;13.05;;;20.10;67.40;;;;;;5072540;28;20031;-46
2021/09/08 07:56:58;;;;;;;19.42;13.73;;;20.30;66.80;;;;;;5072689;28;20052;-46
2021/09/08 07:59:24;;;;;;;21.52;13.90;;;20.40;66.60;;;;;;5071335;28;20044;-48
2021/09/08 08:01:50;;;;;;;19.15;13.85;;;20.50;66.60;;;;;;5072654;28;20112;-46
2021/09/08 08:04:15;;;;;;;19.38;12.77;;;20.80;65.80;;;;;;5072761;28;20032;-49
2021/09/08 08:06:41;;;;;;;24.15;13.63;;;20.80;65.60;;;;;;5072268;28;20025;-47
2021/09/08 08:09:07;;;;;;;19.20;14.43;;;21.10;65.00;;;;;;5072831;28;20052;-48
2021/09/08 08:11:34;;;;;;;18.38;12.32;;;21.40;64.00;;;;;;5072480;28;20036;-47
2021/09/08 08:14:00;;;;;;;22.02;12.02;;;22.00;62.40;;;;;;5072370;28;20143;-48
2021/09/08 08:16:26;;;;;;;21.73;12.35;;;21.80;62.10;;;;;;5072336;28;20129;-47
2021/09/08 08:18:51;;;;;;;16.95;12.25;;;22.00;62.30;;;;;;5072183;28;20074;-46
2021/09/08 08:21:17;;;;;;;17.52;10.90;;;22.80;59.90;;;;;;5072261;28;20431;-46
2021/09/08 08:23:43;;;;;;;15.02;11.70;;;23.30;58.30;;;;;;5072248;28;20461;-46
2021/09/08 08:26:08;;;;;;;17.27;10.50;;;23.30;57.30;;;;;;5072074;28;20036;-46
2021/09/08 08:28:34;;;;;;;42.22;13.68;;;23.30;57.60;;;;;;5071742;28;20384;-46
2021/09/08 08:31:01;;;;;;;19.50;11.07;;;23.80;56.60;;;;;;5072246;28;20023;-48
2021/09/08 08:33:27;;;;;;;17.00;11.88;;;24.00;56.00;;;;;;5070460;28;20464;-47
2021/09/08 08:35:53;;;;;;;15.30;12.02;;;23.90;56.10;;;;;;5071898;28;20017;-48
2021/09/08 08:38:19;;;;;;;18.23;11.27;;;24.10;55.60;;;;;;5072787;28;20510;-48
2021/09/08 08:40:45;;;;;;;24.50;13.25;;;23.60;56.90;;;;;;5072197;28;20405;-46
2021/09/08 08:43:11;;;;;;;20.77;11.02;;;24.20;56.20;;;;;;5071631;28;20021;-48
2021/09/08 08:45:37;;;;;;;24.80;11.85;;;25.20;53.00;;;;;;5070706;28;20032;-46
2021/09/08 08:48:03;;;;;;;18.45;11.00;;;25.30;52.70;;;;;;5071912;28;20020;-49
2021/09/08 08:50:30;;;;;;;17.50;11.45;;;25.00;53.90;;;;;;5071664;28;20062;-49
2021/09/08 08:52:57;;;;;;;18.15;11.15;;;25.60;51.90;;;;;;5071884;28;20036;-47
2021/09/08 08:55:26;;;;;;;15.02;10.68;;;25.40;52.50;;;;;;5072284;28;20041;-46
2021/09/08 08:57:53;;;;;;;25.75;17.52;;;25.70;51.30;;;;;;5071749;28;20028;-48
2021/09/08 09:00:20;;;;;;;15.25;10.45;;;26.00;51.00;;;;;;5071960;28;20036;-50
2021/09/08 09:02:48;;;;;;;20.02;10.45;;;25.90;51.10;;;;;;5071989;28;20037;-48
2021/09/08 09:05:39;;;;;;;20.45;10.68;;;26.30;50.50;;;;;;5072249;28;20024;-48
2021/09/08 09:08:10;;;;;;;17.75;10.77;;;26.00;50.90;;;;;;5071890;28;20078;-47
2021/09/08 09:10:39;;;;;;;16.48;10.60;;;26.00;51.20;;;;;;5072364;28;20057;-48
2021/09/08 09:13:08;;;;;;;24.23;12.10;;;25.70;52.00;;;;;;5072247;28;20029;-38
2021/09/08 09:15:37;;;;;;;16.45;10.82;;;26.20;51.20;;;;;;5072386;28;20250;-52
2021/09/08 09:18:03;;;;;;;18.08;10.70;;;26.00;51.00;;;;;;5070452;28;20033;-38
2021/09/08 09:20:30;;;;;;;17.45;11.75;;;25.90;51.60;;;;;;5070293;28;20055;-38
2021/09/08 09:22:58;;;;;;;17.63;11.27;;;26.80;49.70;;;;;;5071632;28;20060;-37
2021/09/08 09:25:29;;;;;;;18.30;10.15;;;27.30;48.40;;;;;;5070647;28;20024;-38
2021/09/08 09:27:57;;;;;;;23.17;11.52;;;27.10;48.50;;;;;;5072621;28;20020;-38
2021/09/08 09:30:28;;;;;;;15.10;9.55;;;27.20;48.20;;;;;;5072318;28;20469;-38
2021/09/08 09:32:57;;;;;;;13.18;10.20;;;27.80;47.50;;;;;;5071686;28;20028;-38
2021/09/08 09:35:25;;;;;;;15.73;10.73;;;28.30;45.60;;;;;;5071838;28;20032;-38
2021/09/08 09:37:56;;;;;;;20.27;11.30;;;28.90;44.40;;;;;;5071990;28;20024;-38
2021/09/08 09:40:26;;;;;;;13.00;10.05;;;28.90;44.30;;;;;;5072257;28;20021;-38
2021/09/08 09:42:52;;;;;;;21.60;13.20;;;28.30;45.10;;;;;;5075349;28;20029;-38
2021/09/08 09:45:19;;;;;;;18.80;9.65;;;28.20;46.00;;;;;;5074011;28;20425;-38
2021/09/08 09:47:46;;;;;;;17.77;10.38;;;29.00;44.70;;;;;;5075675;28;20024;-48
2021/09/08 09:50:19;;;;;;;18.33;9.82;;;29.10;43.90;;;;;;5076008;28;20021;-38
2021/09/08 09:52:54;;;;;;;15.25;9.48;;;28.70;44.50;;;;;;5075296;28;20498;-38
2021/09/08 09:55:22;;;;;;;14.10;9.85;;;28.50;44.90;;;;;;5073660;28;20028;-38
2021/09/08 09:57:48;;;;;;;17.65;10.52;;;28.20;44.90;;;;;;5075437;28;20392;-37
2021/09/08 10:00:16;;;;;;;26.00;10.02;;;29.20;43.60;;;;;;5075029;28;20071;-37
2021/09/08 10:02:43;;;;;;;14.52;9.95;;;29.90;42.30;;;;;;5074883;28;20056;-38
2021/09/08 10:05:09;;;;;;;18.73;11.80;;;29.60;42.10;;;;;;5075187;28;20044;-38
2021/09/08 10:07:36;;;;;;;13.85;10.52;;;29.20;43.40;;;;;;5074829;28;20024;-38
2021/09/08 10:10:10;;;;;;;18.77;10.10;;;29.20;43.00;;;;;;5074917;28;20020;-39
2021/09/08 10:12:52;;;;;;;14.55;11.90;;;29.70;42.40;;;;;;5073549;28;20066;-36
2021/09/08 10:15:19;;;;;;;21.83;10.05;;;30.10;41.30;;;;;;5075016;28;20032;-37
2021/09/08 10:17:46;;;;;;;16.88;9.65;;;30.20;41.30;;;;;;5074499;28;20032;-37
2021/09/08 10:20:25;;;;;;;15.68;9.70;;;29.50;42.60;;;;;;5074309;28;20052;-38
2021/09/08 10:22:51;;;;;;;15.48;9.63;;;29.90;41.60;;;;;;5074882;28;20056;-37
2021/09/08 10:25:22;;;;;;;18.75;10.15;;;30.30;41.00;;;;;;5074535;28;20060;-38
2021/09/08 10:27:55;;;;;;;17.27;10.55;;;29.80;41.70;;;;;;5073268;28;20025;-41
2021/09/08 10:30:24;;;;;;;14.80;9.85;;;30.40;40.90;;;;;;5074481;28;20025;-38
2021/09/08 10:32:51;;;;;;;13.13;9.07;;;30.50;40.60;;;;;;5074954;28;20029;-38
2021/09/08 10:35:18;;;;;;;14.43;9.85;;;30.70;40.40;;;;;;5074589;28;20101;-37
2021/09/08 10:37:51;;;;;;;15.45;9.60;;;31.80;38.20;;;;;;5074315;28;20345;-37
2021/09/08 10:40:23;;;;;;;14.70;9.60;;;31.40;38.70;;;;;;5074271;28;20024;-37
2021/09/08 10:42:51;;;;;;;12.77;10.13;;;30.90;39.50;;;;;;5074210;28;20136;-37
2021/09/08 10:45:26;;;;;;;14.70;9.98;;;30.40;41.20;;;;;;5072937;28;20107;-37
2021/09/08 10:47:53;;;;;;;10.93;7.63;;;30.90;39.70;;;;;;5072708;28;20097;-37
2021/09/08 10:50:43;;;;;;;13.65;9.68;;;30.80;38.50;;;;;;5074484;28;20013;-39
2021/09/08 10:53:17;;;;;;;14.88;9.35;;;30.80;37.90;;;;;;5064029;28;20373;-37
2021/09/08 10:55:44;;;;;;;12.27;9.13;;;30.80;38.50;;;;;;5074509;28;20020;-37
2021/09/08 10:58:10;;;;;;;12.13;8.68;;;31.00;38.50;;;;;;5072331;28;20021;-37
2021/09/08 12:40:28;;;;;;;11.20;7.32;;;31.40;33.00;;;;;;5090708;27;20433;-36
2021/09/08 12:42:54;;;;;;;9.25;7.28;;;32.00;32.00;;;;;;5089762;28;20024;-37
2021/09/08 12:45:20;;;;;;;10.88;7.65;;;32.50;32.20;;;;;;5089699;28;20020;-37
2021/09/08 12:47:56;;;;;;;9.15;7.03;;;31.10;34.60;;;;;;5088198;28;20020;-37
2021/09/08 12:50:23;;;;;;;8.32;7.30;;;31.60;34.40;;;;;;5088409;28;20090;-37
2021/09/08 12:52:49;;;;;;;12.55;7.60;;;31.80;33.00;;;;;;5088244;28;20368;-37
2021/09/08 12:55:16;;;;;;;12.23;7.15;;;31.80;33.90;;;;;;5087889;28;20108;-37
2021/09/08 12:57:41;;;;;;;7.55;6.75;;;32.50;33.30;;;;;;5089410;28;20024;-37
2021/09/08 13:00:08;;;;;;;9.75;6.30;;;31.90;33.20;;;;;;5087753;28;20379;-37
2021/09/08 13:02:33;;;;;;;10.05;7.03;;;31.00;33.00;;;;;;5088711;28;20027;-39
2021/09/08 13:04:59;;;;;;;6.78;5.78;;;30.40;34.30;;;;;;5088948;28;20024;-40
2021/09/08 13:07:25;;;;;;;10.10;6.40;;;29.90;34.40;;;;;;5088949;28;20051;-38
2021/09/08 13:09:50;;;;;;;6.75;6.00;;;29.50;35.60;;;;;;5087590;28;20361;-39
2021/09/08 13:12:16;;;;;;;9.02;7.45;;;29.00;35.90;;;;;;5089462;28;20436;-37
2021/09/08 13:14:42;;;;;;;11.20;6.47;;;29.00;36.30;;;;;;5089359;28;20487;-38
2021/09/08 13:17:07;;;;;;;10.48;6.25;;;28.50;37.40;;;;;;5089228;28;20028;-38
2021/09/08 13:19:33;;;;;;;7.28;5.80;;;28.80;37.10;;;;;;5088868;28;20057;-37
2021/09/08 13:21:59;;;;;;;8.52;5.72;;;28.70;35.90;;;;;;5088725;28;20391;-39
2021/09/08 13:24:24;;;;;;;7.07;6.28;;;28.80;36.10;;;;;;5087253;28;20024;-37
2021/09/08 13:26:50;;;;;;;9.15;5.70;;;28.80;36.40;;;;;;5089535;28;20020;-38
2021/09/08 13:29:18;;;;;;;14.30;11.65;;;28.60;35.80;;;;;;5087821;28;20035;-38
2021/09/08 13:31:44;;;;;;;8.50;7.60;;;28.80;36.00;;;;;;5088635;28;20031;-38
2021/09/08 13:34:10;;;;;;;9.27;6.75;;;29.00;37.00;;;;;;5089452;28;20028;-36
2021/09/08 13:36:37;;;;;;;7.40;6.60;;;29.10;38.20;;;;;;5089579;28;20024;-37
2021/09/08 13:39:05;;;;;;;7.60;6.78;;;29.40;37.10;;;;;;5088510;28;20083;-37
2021/09/08 13:41:32;;;;;;;7.88;6.97;;;29.50;37.20;;;;;;5089275;28;20028;-37
2021/09/08 13:43:58;;;;;;;10.05;5.97;;;29.40;37.10;;;;;;5089198;28;20016;-37
2021/09/08 13:46:24;;;;;;;19.25;7.95;;;29.40;37.00;;;;;;5088737;28;20074;-40
2021/09/08 13:48:49;;;;;;;8.20;5.57;;;29.60;36.60;;;;;;5088542;28;20401;-37
2021/09/08 13:51:16;;;;;;;16.58;7.03;;;29.30;37.60;;;;;;5077869;28;20421;-37
2021/09/08 13:53:42;;;;;;;7.05;5.32;;;29.10;37.90;;;;;;5075290;28;20107;-37
2021/09/08 13:56:07;;;;;;;8.68;6.57;;;28.80;37.80;;;;;;5073203;28;20111;-39
2021/09/08 13:58:33;;;;;;;10.00;6.72;;;29.20;37.60;;;;;;5074622;28;20031;-37
2021/09/08 14:01:00;;;;;;;7.93;7.13;;;29.10;37.80;;;;;;5073565;28;20409;-37
2021/09/08 14:03:26;;;;;;;10.43;7.50;;;29.10;38.00;;;;;;5074805;28;20036;-38
2021/09/08 14:05:51;;;;;;;9.55;6.80;;;28.50;39.20;;;;;;5075154;28;20020;-38
2021/09/08 14:08:17;;;;;;;9.80;6.47;;;28.50;39.30;;;;;;5073595;28;20496;-38